Flight Track Log - Related Links

Times and Time Zones

All times are in EDT time to prevent confusion due to time zone crossing. See the SWA1424 flight status page for this flight to view local times or setup timezone preferences in your user account.

Time Position Orientation Groundspeed Altitude Reporting Facility
EDT Latitude Longitude Course Direction KTS MPH feet Rate Location/Type
Tue 01:48:16 PM 38.9167 -77.5500 266° West 212 244 2,800  Level Potomac TRACON
Tue 01:52:29 PM 38.8967 -77.9494 286° West 320 368 16,000 3,048 Climbing Washington Center
Tue 01:53:27 PM 38.9253 -78.0758 287° West 346 398 18,600 2,017 Climbing Washington Center
Tue 01:54:28 PM 38.9558 -78.2075 274° West 375 432 20,000 1,820 Climbing Washington Center
Tue 01:55:29 PM 38.9633 -78.3414 273° West 380 437 22,300 2,281 Climbing Washington Center
Tue 01:56:29 PM 38.9683 -78.4831 271° West 391 450 24,600 2,083 Climbing Washington Center
Tue 01:57:30 PM 38.9711 -78.6247 272° West 397 457 26,500 1,866 Climbing Washington Center
Tue 01:58:28 PM 38.9756 -78.7772 271° West 416 479 28,300 1,866 Climbing Washington Center
Tue 01:59:29 PM 38.9778 -78.9267 273° West 423 487 30,200 1,983 Climbing Washington Center
Tue 02:00:29 PM 38.9836 -79.0819 275° West 423 487 32,300 2,033 Climbing Washington Center
Tue 02:01:30 PM 38.9939 -79.2294 277° West 423 487 34,300 1,983 Climbing Washington Center
Tue 02:02:30 PM 39.0083 -79.3717 275° West 418 481 36,300 1,373 Climbing Washington Center
Tue 02:03:28 PM 39.0183 -79.5111 277° West 407 468 37,000 504 Climbing Washington Center
Tue 02:04:29 PM 39.0322 -79.6614 278° West 412 474 37,300 492 Climbing Washington Center
Tue 02:05:30 PM 39.0464 -79.7958 275° West 402 463 38,000 353 Climbing Washington Center
Tue 02:06:28 PM 39.0558 -79.9356 274° West 397 457 38,000  Level Washington Center
Tue 02:07:55 PM 39.0672 -80.1281 275° West 418 481 38,000  Level Indianapolis Center
Tue 02:08:55 PM 39.0775 -80.2719 275° West 406 467 38,000 350 Level Indianapolis Center
Tue 02:09:55 PM 39.0878 -80.4161 278° West 406 467 38,700 550 Climbing Indianapolis Center
Tue 02:10:55 PM 39.1039 -80.5600 299° West 406 467 39,100 500 Climbing Indianapolis Center
Tue 02:11:55 PM 39.1636 -80.6994 298° West 411 473 39,700 450 Climbing Indianapolis Center
Tue 02:12:55 PM 39.2211 -80.8364 300° West 430 495 40,000 150 Climbing Indianapolis Center
Tue 02:13:55 PM 39.2828 -80.9764 299° West 441 507 40,000  Level Indianapolis Center
Tue 02:14:55 PM 39.3419 -81.1136 298° West 447 514 40,000  Level Indianapolis Center
Tue 02:15:55 PM 39.3989 -81.2517 300° West 447 514 40,000  Level Indianapolis Center
Tue 02:16:55 PM 39.4600 -81.3894 299° West 447 514 40,000  Level Indianapolis Center
Tue 02:17:55 PM 39.5186 -81.5275 298° West 447 514 40,000  Level Indianapolis Center
Tue 02:18:55 PM 39.5753 -81.6661 299° West 447 514 40,000  Level Indianapolis Center
Tue 02:20:19 PM 39.6444 -81.8286 299° West 442 509 40,000  Level Indianapolis Center
Tue 02:21:19 PM 39.7197 -82.0078 298° West 435 501 40,000  Level Indianapolis Center
Tue 02:22:19 PM 39.7692 -82.1308 298° West 429 494 40,000  Level Indianapolis Center
Tue 02:23:19 PM 39.8272 -82.2703 299° West 429 494 40,000  Level Indianapolis Center
Tue 02:24:19 PM 39.8850 -82.4072 298° West 429 494 40,000  Level Indianapolis Center
Tue 02:25:19 PM 39.9425 -82.5497 298° West 434 499 40,000  Level Indianapolis Center
Tue 02:26:19 PM 39.9978 -82.6844 298° West 434 499 40,000  Level Indianapolis Center
Tue 02:27:19 PM 40.0550 -82.8275 302° West 429 494 40,000  Level Indianapolis Center
Tue 02:28:19 PM 40.1183 -82.9625 301° West 434 499 40,000  Level Indianapolis Center
Tue 02:29:19 PM 40.1792 -83.0953 303° West 434 499 40,000  Level Indianapolis Center
Tue 02:30:19 PM 40.2464 -83.2333 302° West 439 505 40,000 -50 Level Indianapolis Center
Tue 02:31:19 PM 40.3114 -83.3692 301° West 444 511 39,900 -550 Descending Indianapolis Center
Tue 02:32:19 PM 40.3761 -83.5081 302° West 449 517 38,900 -1,000 Descending Indianapolis Center
Tue 02:33:19 PM 40.4447 -83.6553 302° West 444 511 37,900 -950 Descending Indianapolis Center
Tue 02:34:19 PM 40.5092 -83.7917 302° West 439 505 37,000 -950 Descending Indianapolis Center
Tue 02:35:19 PM 40.5736 -83.9258 301° West 439 505 36,000 -500 Descending Indianapolis Center
Tue 02:36:19 PM 40.6375 -84.0658 301° West 439 505 36,000 -562 Level Indianapolis Center
Tue 02:38:42 PM 40.7878 -84.3936 302° West 435 501 34,100 -857 Descending Chicago Center
Tue 02:39:42 PM 40.8519 -84.5289 301° West 445 512 33,100 -950 Descending Chicago Center
Tue 02:40:42 PM 40.9161 -84.6697 302° West 445 512 32,200 -950 Descending Chicago Center
Tue 02:41:42 PM 40.9803 -84.8083 300° West 450 518 31,200 -1,000 Descending Chicago Center
Tue 02:42:42 PM 41.0419 -84.9500 302° West 450 518 30,200 -600 Descending Chicago Center
Tue 02:43:42 PM 41.1056 -85.0864 300° West 450 518 30,000 -100 Descending Chicago Center
Tue 02:44:42 PM 41.1669 -85.2258 301° West 445 512 30,000 -1,042 Level Chicago Center
Tue 02:46:06 PM 41.2417 -85.3897 301° West 440 506 27,500 -1,833 Descending Chicago Center
Tue 02:47:06 PM 41.3072 -85.5378 301° West 423 487 25,600 -1,950 Descending Chicago Center
Tue 02:48:06 PM 41.3658 -85.6700 301° West 423 487 23,600 -2,500 Descending Chicago Center
Tue 02:49:06 PM 41.4286 -85.8103 287° West 414 476 20,600 -2,682 Descending Chicago Center
Tue 02:50:18 PM 41.4619 -85.9525 281° West 408 470 17,700 -2,091 Descending Chicago Center
Tue 02:51:18 PM 41.4831 -86.0983 281° West 384 442 16,000 -2,000 Descending Chicago Center
Tue 02:52:18 PM 41.5014 -86.2306 281° West 365 420 13,700 -2,250 Descending Chicago Center
Tue 02:53:18 PM 41.5192 -86.3575 273° West 353 406 11,500 -1,650 Descending Chicago Center
Tue 02:54:18 PM 41.5244 -86.4847 270° West 345 397 10,400 -750 Descending Chicago Center
Tue 02:55:18 PM 41.5236 -86.6125 269° West 345 397 10,000 -400 Descending Chicago Center
Tue 02:56:18 PM 41.5222 -86.7400 266° West 340 391 9,600 -700 Descending Chicago Center
Tue 02:57:18 PM 41.5164 -86.8486 273° West 315 362 8,600 -1,000 Descending Chicago Center
Tue 02:58:18 PM 41.5208 -86.9536 268° West 298 343 7,600 -1,000 Descending Chicago Center
Tue 02:59:18 PM 41.5186 -87.0536 269° West 284 327 6,600 -800 Descending Chicago Center
Tue 03:00:18 PM 41.5181 -87.1314 290° West 272 313 6,000 -300 Descending Chicago Center
Tue 03:01:18 PM 41.5472 -87.2386 299° West 258 297 6,000  Level Chicago Center
Tue 03:02:18 PM 41.5822 -87.3233 297° West 263 303 6,000  Level Chicago Center
Tue 03:03:18 PM 41.6150 -87.4086 299° West 263 303 6,000 -700 Level Chicago Center
Tue 03:04:18 PM 41.6517 -87.4964 315° West 263 303 4,600 -1,100 Descending Chicago Center
Tue 03:05:18 PM 41.7008 -87.5617 322° Northwest 263 303 3,800 -682 Descending Chicago Center
Tue 03:06:30 PM 41.7475 -87.6106 321° Northwest 246 283 3,100 -711 Descending Chicago Center
Tue 03:07:33 PM 41.8000 -87.6667 304° West 160 184 2,200 -829 Descending Chicago TRACON
Tue 03:08:33 PM 41.8167 -87.7000 304° West 141 162 1,400 -800 Descending Chicago TRACON

Login

Don't have an account? Register now (free) for customized features, flight alerts, and more!